createdAt,value
2023-04-07T00:01:16.836Z,1.77
2023-04-07T00:03:43.259Z,1.79
2023-04-07T00:06:09.632Z,1.64
2023-04-07T00:08:36.093Z,1.80
2023-04-07T00:11:02.414Z,1.77
2023-04-07T00:13:29.512Z,1.85
2023-04-07T00:15:56.536Z,1.91
2023-04-07T00:18:22.867Z,1.78
2023-04-07T00:20:49.192Z,2.05
2023-04-07T00:23:15.528Z,2.00
2023-04-07T00:25:41.833Z,2.01
2023-04-07T00:28:08.150Z,1.94
2023-04-07T00:30:34.478Z,2.03
2023-04-07T00:33:00.810Z,2.17
2023-04-07T00:35:27.166Z,2.12
2023-04-07T00:37:53.501Z,2.25
2023-04-07T00:40:19.880Z,2.17
2023-04-07T00:42:46.206Z,2.10
2023-04-07T00:45:12.534Z,2.10
2023-04-07T00:47:38.871Z,2.01
2023-04-07T00:50:05.207Z,2.04
2023-04-07T00:52:31.818Z,2.19
2023-04-07T00:54:58.152Z,2.43
2023-04-07T00:57:24.467Z,2.11
2023-04-07T00:59:50.783Z,2.19
2023-04-07T01:02:17.170Z,2.08
2023-04-07T01:04:43.766Z,2.19
2023-04-07T01:07:10.147Z,2.16
2023-04-07T01:09:36.457Z,2.18
2023-04-07T01:12:02.768Z,2.17
2023-04-07T01:14:29.069Z,2.08
2023-04-07T01:16:55.386Z,1.83
2023-04-07T01:19:21.707Z,2.11
2023-04-07T01:21:48.019Z,2.03
2023-04-07T01:24:14.326Z,1.98
2023-04-07T01:26:40.623Z,1.92
2023-04-07T01:29:06.944Z,1.89
2023-04-07T01:31:33.279Z,1.99
2023-04-07T01:33:59.629Z,1.91
2023-04-07T01:36:26.038Z,1.85
2023-04-07T01:38:52.361Z,1.70
2023-04-07T01:41:18.717Z,1.68
2023-04-07T01:43:45.863Z,1.71
2023-04-07T01:46:12.718Z,1.75
2023-04-07T01:48:39.037Z,1.81
2023-04-07T01:51:05.349Z,1.74
2023-04-07T01:53:31.662Z,1.73
2023-04-07T01:55:57.988Z,1.72
2023-04-07T01:58:24.301Z,1.72
2023-04-07T02:00:50.683Z,1.71
2023-04-07T02:03:17.209Z,1.96
2023-04-07T02:05:43.629Z,1.77
2023-04-07T02:08:09.968Z,1.90
2023-04-07T02:10:36.270Z,1.83
2023-04-07T02:13:02.590Z,1.90
2023-04-07T02:15:28.903Z,1.83
2023-04-07T02:17:55.238Z,2.00
2023-04-07T02:20:21.545Z,2.21
2023-04-07T02:22:47.878Z,1.98
2023-04-07T02:25:14.193Z,2.02
2023-04-07T02:27:40.502Z,1.90
2023-04-07T02:30:06.835Z,1.88
2023-04-07T02:32:33.169Z,1.94
2023-04-07T02:34:59.524Z,2.29
2023-04-07T02:37:25.844Z,2.31
2023-04-07T02:39:52.170Z,2.17
2023-04-07T02:42:18.474Z,2.32
2023-04-07T02:44:44.835Z,1.99
2023-04-07T02:47:11.159Z,2.13
2023-04-07T02:49:37.475Z,2.33
2023-04-07T02:52:03.806Z,2.81
2023-04-07T02:54:30.149Z,2.61
2023-04-07T02:56:56.469Z,2.07
2023-04-07T02:59:22.818Z,2.21
2023-04-07T03:01:49.226Z,2.01
2023-04-07T03:04:15.692Z,2.07
2023-04-07T03:06:42.114Z,2.07
2023-04-07T03:09:08.429Z,2.09
2023-04-07T03:11:34.767Z,1.89
2023-04-07T03:14:01.066Z,1.96
2023-04-07T03:16:27.391Z,1.94
2023-04-07T03:18:53.731Z,2.28
2023-04-07T03:21:20.057Z,2.03
2023-04-07T03:23:46.380Z,2.04
2023-04-07T03:26:12.696Z,2.17
2023-04-07T03:28:38.994Z,2.17
2023-04-07T03:31:05.376Z,2.03
2023-04-07T03:33:31.749Z,1.68
2023-04-07T03:35:58.089Z,1.71
2023-04-07T03:38:24.440Z,1.80
2023-04-07T03:40:50.780Z,1.74
2023-04-07T03:43:17.108Z,1.60
2023-04-07T03:45:43.445Z,1.99
2023-04-07T03:48:09.985Z,2.43
2023-04-07T03:50:36.315Z,2.59
2023-04-07T03:53:02.634Z,2.53
2023-04-07T03:55:28.969Z,2.39
2023-04-07T03:57:55.323Z,2.57
2023-04-07T04:00:21.653Z,2.69
2023-04-07T04:02:48.000Z,2.88
2023-04-07T04:05:14.324Z,3.16
2023-04-07T04:07:40.651Z,3.25
2023-04-07T04:10:06.981Z,3.43
2023-04-07T04:12:33.305Z,3.34
2023-04-07T04:14:59.613Z,3.09
2023-04-07T04:17:25.954Z,3.27
2023-04-07T04:19:52.298Z,3.21
2023-04-07T04:22:18.621Z,3.28
2023-04-07T04:24:44.962Z,3.51
2023-04-07T04:27:11.266Z,3.35
2023-04-07T04:29:37.585Z,3.52
2023-04-07T04:32:03.918Z,3.83
2023-04-07T04:34:30.216Z,3.36
2023-04-07T04:36:56.580Z,3.74
2023-04-07T04:39:22.900Z,3.61
2023-04-07T04:41:49.193Z,3.54
2023-04-07T04:44:15.511Z,3.37
2023-04-07T04:46:41.839Z,3.31
2023-04-07T04:49:08.193Z,3.36
2023-04-07T04:51:34.525Z,3.13
2023-04-07T04:54:00.828Z,3.15
2023-04-07T04:56:27.130Z,3.17
2023-04-07T04:58:53.464Z,3.20
2023-04-07T05:01:19.851Z,3.08
2023-04-07T05:03:46.401Z,3.09
2023-04-07T05:06:12.805Z,3.24
2023-04-07T05:08:39.125Z,3.13
2023-04-07T05:11:05.431Z,3.27
2023-04-07T05:13:31.755Z,3.08
2023-04-07T05:15:58.113Z,3.37
2023-04-07T05:18:24.424Z,3.35
2023-04-07T05:20:50.764Z,3.55
2023-04-07T05:23:17.082Z,3.33
2023-04-07T05:25:43.385Z,3.43
2023-04-07T05:28:09.686Z,3.43
2023-04-07T05:30:36.003Z,3.78
2023-04-07T05:33:02.376Z,3.35
2023-04-07T05:35:28.725Z,3.41
2023-04-07T05:37:55.046Z,3.33
2023-04-07T05:40:21.382Z,3.43
2023-04-07T05:42:47.712Z,3.53
2023-04-07T05:45:14.035Z,3.62
2023-04-07T05:47:40.423Z,3.55
2023-04-07T05:50:06.809Z,3.71
2023-04-07T05:52:33.137Z,3.72
2023-04-07T05:54:59.468Z,3.37
2023-04-07T05:57:25.799Z,3.91
2023-04-07T05:59:52.103Z,3.67
2023-04-07T06:02:18.569Z,3.73
2023-04-07T06:04:44.960Z,3.96
2023-04-07T06:07:11.264Z,4.24
2023-04-07T06:09:37.602Z,4.35
2023-04-07T06:12:03.905Z,4.03
2023-04-07T06:14:30.232Z,3.90
2023-04-07T06:16:56.600Z,3.72
2023-04-07T06:19:22.925Z,3.90
2023-04-07T06:21:49.261Z,3.96
2023-04-07T06:24:15.580Z,4.05
2023-04-07T06:26:41.901Z,3.27
2023-04-07T06:29:08.249Z,3.20
2023-04-07T06:31:34.600Z,3.23
2023-04-07T06:34:00.915Z,3.46
2023-04-07T06:36:27.252Z,3.35
2023-04-07T06:38:53.596Z,3.32
2023-04-07T06:41:19.902Z,3.98
2023-04-07T06:43:46.435Z,3.45
2023-04-07T06:46:12.946Z,3.34
2023-04-07T06:48:39.302Z,3.15
2023-04-07T06:51:05.654Z,3.35
2023-04-07T06:53:31.971Z,3.95
2023-04-07T06:55:58.291Z,3.94
2023-04-07T06:58:24.623Z,4.36
2023-04-07T07:00:50.940Z,3.86
2023-04-07T07:03:17.402Z,3.49
2023-04-07T07:05:43.919Z,3.49
2023-04-07T07:08:10.233Z,3.71
2023-04-07T07:10:36.540Z,3.88
2023-04-07T07:13:02.834Z,3.69
2023-04-07T07:15:29.204Z,3.55
2023-04-07T07:17:55.568Z,3.35
2023-04-07T07:20:21.909Z,3.40
2023-04-07T07:22:48.217Z,3.38
2023-04-07T07:25:14.528Z,3.45
2023-04-07T07:27:40.886Z,3.56
2023-04-07T07:30:07.190Z,3.39
2023-04-07T07:32:33.557Z,2.73
2023-04-07T07:34:59.923Z,2.18
2023-04-07T07:37:26.232Z,2.35
2023-04-07T07:39:52.569Z,1.89
2023-04-07T07:42:18.883Z,1.70
2023-04-07T07:44:45.187Z,1.81
2023-04-07T07:47:11.516Z,2.05
2023-04-07T07:49:37.844Z,1.83
2023-04-07T07:52:04.149Z,1.98
2023-04-07T07:54:30.450Z,1.99
2023-04-07T07:56:56.758Z,1.97
2023-04-07T07:59:23.076Z,2.12
2023-04-07T08:01:49.406Z,2.17
2023-04-07T08:04:16.001Z,2.15
2023-04-07T08:06:42.391Z,2.15
2023-04-07T08:09:08.720Z,2.49
2023-04-07T08:11:35.060Z,2.35
2023-04-07T08:14:01.400Z,2.14
2023-04-07T08:16:27.755Z,2.48
2023-04-07T08:18:54.151Z,2.41
2023-04-07T08:21:20.478Z,2.37
2023-04-07T08:23:47.087Z,2.32
2023-04-07T08:26:13.555Z,2.55
2023-04-07T08:28:40.118Z,2.78
2023-04-07T08:31:06.509Z,2.95
2023-04-07T08:33:32.877Z,2.85
2023-04-07T08:35:59.215Z,3.05
2023-04-07T08:38:25.533Z,3.21
2023-04-07T08:40:51.858Z,3.25
2023-04-07T08:43:18.179Z,3.30
2023-04-07T08:45:44.507Z,3.17
2023-04-07T08:48:10.822Z,3.24
2023-04-07T08:50:37.145Z,3.65
2023-04-07T08:53:04.492Z,3.42
2023-04-07T08:55:32.099Z,3.58
2023-04-07T08:58:00.164Z,3.31
2023-04-07T09:00:28.302Z,3.74
2023-04-07T09:02:54.640Z,4.19
2023-04-07T09:05:21.000Z,4.44
2023-04-07T09:07:47.317Z,4.26
2023-04-07T09:10:13.636Z,3.69
2023-04-07T09:12:39.971Z,3.86
2023-04-07T09:15:06.304Z,4.63
2023-04-07T09:17:32.665Z,5.12
2023-04-07T09:19:58.997Z,5.18
2023-04-07T09:22:25.308Z,5.03
2023-04-07T09:24:51.605Z,5.13
2023-04-07T09:27:17.907Z,5.11
2023-04-07T09:29:44.214Z,4.50
2023-04-07T09:32:10.607Z,4.64
2023-04-07T09:34:38.494Z,5.18
2023-04-07T09:37:06.755Z,4.66
2023-04-07T09:39:33.057Z,4.66
2023-04-07T09:41:59.388Z,4.38
2023-04-07T09:44:25.717Z,4.67
2023-04-07T09:46:52.022Z,4.30
2023-04-07T09:49:18.334Z,2.79
2023-04-07T09:51:44.646Z,2.29
2023-04-07T09:54:10.974Z,3.03
2023-04-07T09:56:37.303Z,2.93
2023-04-07T09:59:03.627Z,2.07
2023-04-07T10:01:30.131Z,2.41
2023-04-07T10:03:56.633Z,2.36
2023-04-07T10:06:23.000Z,2.45
2023-04-07T10:08:49.577Z,2.69
2023-04-07T10:11:16.116Z,2.74
2023-04-07T10:13:42.455Z,3.37
2023-04-07T10:16:08.786Z,4.23
2023-04-07T10:18:35.104Z,4.18
2023-04-07T10:21:01.424Z,4.28
2023-04-07T10:23:27.749Z,3.48
2023-04-07T10:25:54.089Z,2.40
2023-04-07T10:28:20.414Z,2.62
2023-04-07T10:30:46.757Z,2.04
2023-04-07T10:33:13.084Z,1.75
2023-04-07T10:35:39.424Z,1.85
2023-04-07T10:38:05.756Z,1.53
2023-04-07T10:40:32.076Z,1.95
2023-04-07T10:42:58.377Z,2.72
2023-04-07T10:45:24.706Z,3.65
2023-04-07T10:47:51.133Z,3.78
2023-04-07T10:50:17.486Z,4.03
2023-04-07T10:52:43.805Z,4.98
2023-04-07T10:55:10.137Z,5.41
2023-04-07T10:57:36.440Z,5.03
2023-04-07T11:00:02.743Z,4.81
2023-04-07T11:02:29.297Z,5.01
2023-04-07T11:04:55.737Z,4.15
2023-04-07T11:07:22.139Z,3.88
2023-04-07T11:09:48.453Z,3.77
2023-04-07T11:12:14.785Z,2.59
2023-04-07T11:14:41.086Z,2.03
2023-04-07T11:17:07.385Z,2.25
2023-04-07T11:19:33.693Z,3.02
2023-04-07T11:22:00.049Z,3.03
2023-04-07T11:24:26.384Z,2.74
2023-04-07T11:26:52.717Z,2.68
2023-04-07T11:29:19.036Z,2.61
2023-04-07T11:31:45.453Z,2.44
2023-04-07T11:34:11.840Z,2.23
2023-04-07T11:36:38.174Z,2.05
2023-04-07T11:39:04.489Z,1.63
2023-04-07T11:41:30.874Z,1.57
2023-04-07T11:43:57.247Z,2.55
2023-04-07T11:46:23.619Z,3.13
2023-04-07T11:48:49.983Z,3.23
2023-04-07T11:51:16.320Z,2.96
2023-04-07T11:53:42.639Z,2.88
2023-04-07T11:56:08.945Z,2.76
2023-04-07T11:58:35.271Z,2.52
2023-04-07T12:01:01.617Z,2.46
2023-04-07T12:03:28.019Z,1.51
2023-04-07T12:05:54.409Z,1.35
2023-04-07T12:08:20.749Z,1.46
2023-04-07T12:10:47.072Z,1.64
2023-04-07T12:13:13.403Z,2.15
2023-04-07T12:15:39.721Z,1.92
2023-04-07T12:18:06.063Z,2.28
2023-04-07T12:20:32.430Z,2.23
2023-04-07T12:22:58.737Z,1.91
2023-04-07T12:25:25.058Z,1.89
2023-04-07T12:27:51.371Z,1.57
2023-04-07T12:30:17.672Z,1.31
2023-04-07T12:32:44.003Z,1.45
2023-04-07T12:35:10.394Z,1.49
2023-04-07T12:37:36.728Z,1.36
2023-04-07T12:40:03.054Z,1.38
2023-04-07T12:42:29.391Z,1.29
2023-04-07T12:44:55.721Z,1.28
2023-04-07T12:47:22.207Z,1.33
2023-04-07T12:49:49.877Z,1.33
2023-04-07T12:52:16.636Z,1.19
2023-04-07T12:54:42.952Z,1.28
2023-04-07T12:57:09.278Z,1.34
2023-04-07T12:59:35.593Z,1.58
2023-04-07T13:02:01.967Z,1.28
2023-04-07T13:04:28.470Z,1.14
2023-04-07T13:06:54.842Z,1.14
2023-04-07T13:09:21.166Z,1.24
2023-04-07T13:11:47.489Z,1.15
2023-04-07T13:14:13.804Z,1.29
2023-04-07T13:16:40.154Z,1.26
2023-04-07T13:19:06.477Z,1.24
2023-04-07T13:24:02.012Z,1.21
2023-04-07T13:26:28.342Z,1.27
2023-04-07T13:28:54.668Z,1.50
2023-04-07T13:31:21.083Z,1.34
2023-04-07T13:33:47.705Z,1.27
2023-04-07T13:36:14.262Z,1.24
2023-04-07T13:38:40.618Z,1.29
2023-04-07T13:41:06.951Z,1.29
2023-04-07T13:43:33.268Z,1.23
2023-04-07T13:45:59.632Z,1.10
2023-04-07T13:48:25.995Z,1.09
2023-04-07T13:50:52.297Z,1.21
2023-04-07T13:53:19.240Z,1.28
2023-04-07T13:55:45.755Z,1.28
2023-04-07T13:58:12.073Z,1.24
2023-04-07T14:00:38.413Z,1.24
2023-04-07T14:03:04.857Z,1.11
2023-04-07T14:05:31.255Z,1.27
2023-04-07T14:07:57.587Z,1.21
2023-04-07T14:10:23.902Z,1.27
2023-04-07T14:12:50.228Z,1.07
2023-04-07T14:15:18.263Z,0.95
2023-04-07T14:17:44.811Z,1.05
2023-04-07T14:20:11.133Z,1.06
2023-04-07T14:22:37.429Z,1.12
2023-04-07T14:25:03.735Z,1.07
2023-04-07T14:27:31.074Z,1.05
2023-04-07T14:29:57.690Z,0.94
2023-04-07T14:32:24.027Z,1.00
2023-04-07T14:34:50.388Z,1.27
2023-04-07T14:37:16.703Z,1.21
2023-04-07T14:39:45.906Z,1.19
2023-04-07T14:42:22.008Z,1.35
2023-04-07T14:44:48.340Z,1.38
2023-04-07T14:47:14.660Z,1.28
2023-04-07T14:49:40.963Z,1.17
2023-04-07T14:52:07.282Z,1.30
2023-04-07T14:54:33.594Z,1.27
2023-04-07T14:56:59.919Z,1.40
2023-04-07T14:59:26.232Z,1.17
2023-04-07T15:01:53.377Z,1.12
2023-04-07T15:04:19.858Z,1.08
2023-04-07T15:06:47.277Z,1.04
2023-04-07T15:09:13.766Z,1.39
2023-04-07T15:11:40.110Z,1.59
2023-04-07T15:14:06.432Z,1.32
2023-04-07T15:16:32.818Z,1.15
2023-04-07T15:18:59.224Z,1.45
2023-04-07T15:21:25.556Z,1.28
2023-04-07T15:23:52.050Z,1.13
2023-04-07T15:26:18.387Z,0.99
2023-04-07T15:28:44.687Z,1.12
2023-04-07T15:31:11.037Z,1.13
2023-04-07T15:33:37.392Z,1.16
2023-04-07T15:36:03.747Z,1.00
2023-04-07T15:38:30.060Z,1.71
2023-04-07T15:40:56.385Z,1.18
2023-04-07T15:43:22.704Z,1.10
2023-04-07T15:45:49.017Z,2.03
2023-04-07T15:48:15.350Z,2.29
2023-04-07T15:50:41.673Z,2.72
2023-04-07T15:53:07.992Z,2.52
2023-04-07T15:55:34.295Z,2.01
2023-04-07T15:58:00.594Z,1.96
2023-04-07T16:00:26.922Z,2.32
2023-04-07T16:02:53.341Z,1.81
2023-04-07T16:05:19.735Z,1.25
2023-04-07T16:07:46.062Z,1.25
2023-04-07T16:10:12.369Z,1.49
2023-04-07T16:12:38.670Z,1.58
2023-04-07T16:15:05.050Z,1.69
2023-04-07T16:17:31.534Z,1.63
2023-04-07T16:19:57.853Z,1.73
2023-04-07T16:22:24.160Z,1.77
2023-04-07T16:24:50.490Z,2.00
2023-04-07T16:27:16.813Z,1.66
2023-04-07T16:29:43.112Z,1.37
2023-04-07T16:32:09.495Z,1.48
2023-04-07T16:34:35.861Z,1.49
2023-04-07T16:37:02.186Z,1.57
2023-04-07T16:39:29.522Z,1.56
2023-04-07T16:41:56.067Z,1.39
2023-04-07T16:44:22.383Z,1.60
2023-04-07T16:46:48.695Z,1.37
2023-04-07T16:49:14.999Z,1.49
2023-04-07T16:51:41.321Z,1.43
2023-04-07T16:54:07.645Z,1.44
2023-04-07T16:56:34.065Z,1.32
2023-04-07T16:59:02.580Z,1.58
2023-04-07T17:01:30.232Z,1.77
2023-04-07T17:03:56.746Z,1.90
2023-04-07T17:06:23.137Z,1.80
2023-04-07T17:08:49.454Z,1.89
2023-04-07T17:11:15.761Z,1.58
2023-04-07T17:13:42.085Z,1.79
2023-04-07T17:16:08.438Z,1.91
2023-04-07T17:18:34.796Z,1.64
2023-04-07T17:21:01.107Z,1.81
2023-04-07T17:23:27.422Z,1.73
2023-04-07T17:25:53.748Z,1.60
2023-04-07T17:28:20.082Z,1.66
2023-04-07T17:30:46.493Z,1.62
2023-04-07T17:33:12.890Z,1.49
2023-04-07T17:35:39.296Z,1.65
2023-04-07T17:38:05.645Z,1.66
2023-04-07T17:40:31.967Z,1.50
2023-04-07T17:42:58.295Z,1.52
2023-04-07T17:45:24.620Z,1.55
2023-04-07T17:47:50.979Z,1.61
2023-04-07T17:50:17.329Z,1.60
2023-04-07T17:52:43.675Z,1.64
2023-04-07T17:55:10.016Z,1.53
2023-04-07T17:57:36.376Z,1.68
2023-04-07T18:00:02.700Z,1.68
2023-04-07T18:02:29.229Z,1.96
2023-04-07T18:04:55.781Z,1.72
2023-04-07T18:07:22.135Z,1.83
2023-04-07T18:09:48.471Z,1.78
2023-04-07T18:12:14.776Z,1.63
2023-04-07T18:14:41.099Z,1.64
2023-04-07T18:17:07.416Z,1.70
2023-04-07T18:19:33.742Z,1.80
2023-04-07T18:22:00.098Z,1.81
2023-04-07T18:24:27.523Z,1.72
2023-04-07T18:26:53.841Z,1.68
2023-04-07T18:29:20.160Z,1.39
2023-04-07T18:31:46.594Z,1.33
2023-04-07T18:34:12.961Z,1.22
2023-04-07T18:36:39.285Z,1.06
2023-04-07T18:39:05.597Z,1.17
2023-04-07T18:41:31.910Z,1.12
2023-04-07T18:43:58.208Z,1.09
2023-04-07T18:46:24.569Z,1.09
2023-04-07T18:48:50.893Z,1.19
2023-04-07T18:51:17.197Z,1.12
2023-04-07T18:53:43.505Z,1.14
2023-04-07T18:56:09.819Z,0.97
2023-04-07T18:58:36.163Z,1.06
2023-04-07T19:01:02.538Z,1.12
2023-04-07T19:03:29.019Z,1.14
2023-04-07T19:05:55.479Z,1.23
2023-04-07T19:08:21.801Z,1.19
2023-04-07T19:10:49.326Z,1.21
2023-04-07T19:13:17.230Z,1.25
2023-04-07T19:15:43.545Z,1.32
2023-04-07T19:18:09.838Z,1.28
2023-04-07T19:20:36.171Z,1.33
2023-04-07T19:23:02.485Z,1.26
2023-04-07T19:25:28.793Z,1.15
2023-04-07T19:27:55.106Z,1.25
2023-04-07T19:30:21.403Z,1.24
2023-04-07T19:32:47.731Z,1.23
2023-04-07T19:35:14.100Z,1.13
2023-04-07T19:37:40.410Z,1.30
2023-04-07T19:40:06.713Z,1.12
2023-04-07T19:42:33.044Z,1.13
2023-04-07T19:44:59.343Z,1.16
2023-04-07T19:47:25.690Z,1.40
2023-04-07T19:49:52.051Z,3.04
2023-04-07T19:52:18.348Z,2.49
2023-04-07T19:54:44.676Z,1.83
2023-04-07T19:57:11.011Z,1.48
2023-04-07T19:59:37.382Z,1.42
2023-04-07T20:02:03.819Z,1.34
2023-04-07T20:04:30.228Z,1.36
2023-04-07T20:06:56.557Z,1.50
2023-04-07T20:09:22.862Z,1.51
2023-04-07T20:11:49.169Z,1.47
2023-04-07T20:14:15.507Z,1.62
2023-04-07T20:16:41.860Z,1.74
2023-04-07T20:19:08.262Z,1.72
2023-04-07T20:21:34.593Z,1.84
2023-04-07T20:24:00.941Z,1.61
2023-04-07T20:26:27.322Z,1.94
2023-04-07T20:28:53.644Z,2.02
2023-04-07T20:31:20.081Z,2.15
2023-04-07T20:33:46.408Z,2.20
2023-04-07T20:36:12.709Z,1.85
2023-04-07T20:38:39.005Z,1.82
2023-04-07T20:41:05.348Z,1.63
2023-04-07T20:43:31.722Z,1.83
2023-04-07T20:45:58.105Z,1.93
2023-04-07T20:48:24.445Z,1.94
2023-04-07T20:50:50.775Z,1.93
2023-04-07T20:53:17.097Z,1.96
2023-04-07T20:55:43.423Z,1.94
2023-04-07T20:58:09.745Z,1.73
2023-04-07T21:00:36.045Z,1.93
2023-04-07T21:03:02.486Z,1.81
2023-04-07T21:05:28.895Z,1.88
2023-04-07T21:07:55.206Z,1.91
2023-04-07T21:10:21.539Z,1.84
2023-04-07T21:12:47.848Z,1.80
2023-04-07T21:15:14.151Z,1.70
2023-04-07T21:17:40.535Z,1.75
2023-04-07T21:20:06.973Z,1.64
2023-04-07T21:22:33.282Z,1.82
2023-04-07T21:24:59.584Z,1.65
2023-04-07T21:27:25.889Z,1.67
2023-04-07T21:29:52.214Z,1.51
2023-04-07T21:32:18.616Z,1.49
2023-04-07T21:34:44.972Z,1.51
2023-04-07T21:37:11.302Z,1.53
2023-04-07T21:39:37.628Z,1.45
2023-04-07T21:42:03.944Z,1.58
2023-04-07T21:44:30.249Z,1.60
2023-04-07T21:46:56.642Z,1.78
2023-04-07T21:49:22.978Z,1.87
2023-04-07T21:51:49.331Z,1.80
2023-04-07T21:54:15.676Z,1.92
2023-04-07T21:56:41.993Z,1.70
2023-04-07T21:59:08.297Z,1.67
2023-04-07T22:01:34.802Z,1.56
2023-04-07T22:04:01.234Z,1.63
2023-04-07T22:06:27.671Z,1.75
2023-04-07T22:09:01.236Z,1.72
2023-04-07T22:11:28.331Z,1.99
2023-04-07T22:13:54.653Z,1.94
2023-04-07T22:16:21.002Z,2.02
2023-04-07T22:18:47.628Z,2.01
2023-04-07T22:21:14.102Z,1.79
2023-04-07T22:23:40.416Z,1.92
2023-04-07T22:26:06.724Z,1.82
2023-04-07T22:28:33.026Z,1.86
2023-04-07T22:30:59.401Z,1.79
2023-04-07T22:33:25.780Z,1.87
2023-04-07T22:35:52.126Z,1.75
2023-04-07T22:38:18.487Z,1.71
2023-04-07T22:40:44.792Z,1.92
2023-04-07T22:43:11.099Z,1.84
2023-04-07T22:45:37.567Z,1.76
2023-04-07T22:48:03.900Z,1.82
2023-04-07T22:50:30.252Z,1.79
2023-04-07T22:52:56.575Z,1.86
2023-04-07T22:55:22.904Z,1.88
2023-04-07T22:57:49.230Z,2.05
2023-04-07T23:00:15.549Z,2.02
2023-04-07T23:02:42.072Z,1.86
2023-04-07T23:05:08.554Z,1.90
2023-04-07T23:07:34.869Z,1.98
2023-04-07T23:10:01.316Z,2.06
2023-04-07T23:12:27.641Z,2.25
2023-04-07T23:14:53.966Z,2.38
2023-04-07T23:17:20.323Z,2.63
2023-04-07T23:19:46.680Z,2.60
2023-04-07T23:22:12.986Z,2.42
2023-04-07T23:24:39.282Z,2.16
2023-04-07T23:27:05.580Z,2.07
2023-04-07T23:29:31.898Z,2.04
2023-04-07T23:31:58.224Z,1.91
2023-04-07T23:34:24.545Z,2.09
2023-04-07T23:36:50.864Z,2.09
2023-04-07T23:39:17.184Z,2.08
2023-04-07T23:41:43.534Z,2.18
2023-04-07T23:44:09.836Z,2.10
2023-04-07T23:46:36.131Z,2.11
2023-04-07T23:49:02.433Z,2.06
2023-04-07T23:51:28.773Z,2.28
2023-04-07T23:53:55.120Z,2.18
2023-04-07T23:56:21.434Z,2.25
2023-04-07T23:58:47.884Z,2.20
